sensor_id;sensor_type;location;lat;lon;timestamp;P1;durP1;ratioP1;P2;durP2;ratioP2
7295;SDS011;40758;54.038;11.684;2024-03-23T00:54:16;10.23;;;5.18;;
7295;SDS011;40758;54.038;11.684;2024-03-23T00:56:41;15.73;;;3.03;;
7295;SDS011;40758;54.038;11.684;2024-03-23T00:59:07;12.20;;;5.43;;
7295;SDS011;40758;54.038;11.684;2024-03-23T01:01:33;13.20;;;6.20;;
7295;SDS011;40758;54.038;11.684;2024-03-23T01:03:58;12.25;;;3.50;;
7295;SDS011;40758;54.038;11.684;2024-03-23T01:06:24;11.55;;;4.72;;
7295;SDS011;40758;54.038;11.684;2024-03-23T01:08:50;8.27;;;4.32;;
7295;SDS011;40758;54.038;11.684;2024-03-23T01:11:16;14.32;;;5.47;;
7295;SDS011;40758;54.038;11.684;2024-03-23T01:13:41;12.90;;;5.72;;
7295;SDS011;40758;54.038;11.684;2024-03-23T01:16:07;17.65;;;5.20;;
7295;SDS011;40758;54.038;11.684;2024-03-23T01:18:33;19.88;;;4.93;;
7295;SDS011;40758;54.038;11.684;2024-03-23T01:20:59;13.48;;;4.78;;
7295;SDS011;40758;54.038;11.684;2024-03-23T01:23:24;17.52;;;5.13;;
7295;SDS011;40758;54.038;11.684;2024-03-23T01:25:54;14.45;;;5.30;;
7295;SDS011;40758;54.038;11.684;2024-03-23T01:28:20;11.13;;;4.28;;
7295;SDS011;40758;54.038;11.684;2024-03-23T01:30:46;13.80;;;4.60;;
7295;SDS011;40758;54.038;11.684;2024-03-23T01:33:12;14.30;;;4.90;;
7295;SDS011;40758;54.038;11.684;2024-03-23T01:35:38;14.13;;;5.63;;
7295;SDS011;40758;54.038;11.684;2024-03-23T01:38:04;18.08;;;6.07;;
7295;SDS011;40758;54.038;11.684;2024-03-23T01:40:29;10.07;;;3.85;;
7295;SDS011;40758;54.038;11.684;2024-03-23T01:43:04;10.57;;;3.65;;
7295;SDS011;40758;54.038;11.684;2024-03-23T01:45:33;15.00;;;5.75;;
7295;SDS011;40758;54.038;11.684;2024-03-23T01:48:00;10.30;;;4.20;;
7295;SDS011;40758;54.038;11.684;2024-03-23T01:50:27;11.65;;;3.90;;
7295;SDS011;40758;54.038;11.684;2024-03-23T01:52:53;11.52;;;6.07;;
7295;SDS011;40758;54.038;11.684;2024-03-23T01:55:19;7.25;;;4.18;;
7295;SDS011;40758;54.038;11.684;2024-03-23T01:57:46;12.25;;;4.03;;
7295;SDS011;40758;54.038;11.684;2024-03-23T02:00:14;11.65;;;5.25;;
7295;SDS011;40758;54.038;11.684;2024-03-23T02:05:12;6.43;;;3.88;;
7295;SDS011;40758;54.038;11.684;2024-03-23T02:07:41;11.45;;;1.77;;
7295;SDS011;40758;54.038;11.684;2024-03-23T02:10:08;14.82;;;3.75;;
7295;SDS011;40758;54.038;11.684;2024-03-23T02:12:40;14.25;;;4.53;;
7295;SDS011;40758;54.038;11.684;2024-03-23T02:15:06;12.57;;;3.00;;
7295;SDS011;40758;54.038;11.684;2024-03-23T02:17:34;16.05;;;5.03;;
7295;SDS011;40758;54.038;11.684;2024-03-23T02:20:00;17.98;;;4.88;;
7295;SDS011;40758;54.038;11.684;2024-03-23T02:22:39;8.68;;;4.72;;
7295;SDS011;40758;54.038;11.684;2024-03-23T02:25:06;12.70;;;5.25;;
7295;SDS011;40758;54.038;11.684;2024-03-23T02:27:32;13.48;;;5.75;;
7295;SDS011;40758;54.038;11.684;2024-03-23T02:30:00;12.18;;;3.58;;
7295;SDS011;40758;54.038;11.684;2024-03-23T02:32:25;11.88;;;5.65;;
7295;SDS011;40758;54.038;11.684;2024-03-23T02:34:51;11.27;;;3.85;;
7295;SDS011;40758;54.038;11.684;2024-03-23T02:37:17;14.82;;;5.40;;
7295;SDS011;40758;54.038;11.684;2024-03-23T02:39:44;15.48;;;3.55;;
7295;SDS011;40758;54.038;11.684;2024-03-23T02:42:09;13.80;;;3.80;;
7295;SDS011;40758;54.038;11.684;2024-03-23T02:44:36;11.77;;;5.05;;
7295;SDS011;40758;54.038;11.684;2024-03-23T02:47:02;7.93;;;1.42;;
7295;SDS011;40758;54.038;11.684;2024-03-23T02:49:27;10.77;;;4.50;;
7295;SDS011;40758;54.038;11.684;2024-03-23T02:51:53;9.05;;;5.10;;
7295;SDS011;40758;54.038;11.684;2024-03-23T02:54:19;3.97;;;2.17;;
7295;SDS011;40758;54.038;11.684;2024-03-23T02:56:44;11.88;;;3.65;;
7295;SDS011;40758;54.038;11.684;2024-03-23T02:59:10;11.90;;;3.90;;
7295;SDS011;40758;54.038;11.684;2024-03-23T03:01:36;10.98;;;1.15;;
7295;SDS011;40758;54.038;11.684;2024-03-23T03:04:01;15.65;;;4.65;;
7295;SDS011;40758;54.038;11.684;2024-03-23T03:06:27;13.40;;;4.45;;
7295;SDS011;40758;54.038;11.684;2024-03-23T03:08:53;9.43;;;3.88;;
7295;SDS011;40758;54.038;11.684;2024-03-23T03:11:19;20.05;;;6.30;;
7295;SDS011;40758;54.038;11.684;2024-03-23T03:13:45;11.98;;;4.22;;
7295;SDS011;40758;54.038;11.684;2024-03-23T03:16:11;8.43;;;1.77;;
7295;SDS011;40758;54.038;11.684;2024-03-23T03:18:38;12.30;;;3.72;;
7295;SDS011;40758;54.038;11.684;2024-03-23T03:21:05;15.90;;;4.45;;
7295;SDS011;40758;54.038;11.684;2024-03-23T03:23:36;11.05;;;4.35;;
7295;SDS011;40758;54.038;11.684;2024-03-23T03:26:03;7.63;;;4.85;;
7295;SDS011;40758;54.038;11.684;2024-03-23T03:28:31;9.70;;;3.95;;
7295;SDS011;40758;54.038;11.684;2024-03-23T03:30:58;16.90;;;4.85;;
7295;SDS011;40758;54.038;11.684;2024-03-23T03:33:25;7.03;;;4.10;;
7295;SDS011;40758;54.038;11.684;2024-03-23T03:35:51;11.95;;;4.60;;
7295;SDS011;40758;54.038;11.684;2024-03-23T03:38:18;13.00;;;4.68;;
7295;SDS011;40758;54.038;11.684;2024-03-23T03:40:44;16.15;;;5.15;;
7295;SDS011;40758;54.038;11.684;2024-03-23T03:43:10;14.35;;;5.07;;
7295;SDS011;40758;54.038;11.684;2024-03-23T03:45:36;18.10;;;3.75;;
7295;SDS011;40758;54.038;11.684;2024-03-23T03:48:02;15.77;;;3.60;;
7295;SDS011;40758;54.038;11.684;2024-03-23T03:50:28;10.60;;;1.42;;
7295;SDS011;40758;54.038;11.684;2024-03-23T03:52:53;13.65;;;2.95;;
7295;SDS011;40758;54.038;11.684;2024-03-23T03:55:19;10.40;;;4.85;;
7295;SDS011;40758;54.038;11.684;2024-03-23T03:57:45;17.52;;;4.38;;
7295;SDS011;40758;54.038;11.684;2024-03-23T04:00:11;13.18;;;4.22;;
7295;SDS011;40758;54.038;11.684;2024-03-23T04:02:37;11.75;;;4.15;;
7295;SDS011;40758;54.038;11.684;2024-03-23T04:05:03;13.80;;;3.97;;
7295;SDS011;40758;54.038;11.684;2024-03-23T04:07:30;14.55;;;5.15;;
7295;SDS011;40758;54.038;11.684;2024-03-23T04:09:55;17.30;;;4.57;;
7295;SDS011;40758;54.038;11.684;2024-03-23T04:12:21;10.05;;;1.88;;
7295;SDS011;40758;54.038;11.684;2024-03-23T04:14:47;13.82;;;4.22;;
7295;SDS011;40758;54.038;11.684;2024-03-23T04:17:13;17.50;;;4.50;;
7295;SDS011;40758;54.038;11.684;2024-03-23T04:19:38;13.88;;;3.85;;
7295;SDS011;40758;54.038;11.684;2024-03-23T04:22:05;14.77;;;5.22;;
7295;SDS011;40758;54.038;11.684;2024-03-23T04:24:30;9.50;;;3.88;;
7295;SDS011;40758;54.038;11.684;2024-03-23T04:26:56;14.32;;;3.60;;
7295;SDS011;40758;54.038;11.684;2024-03-23T04:29:21;14.80;;;5.03;;
7295;SDS011;40758;54.038;11.684;2024-03-23T04:31:47;9.70;;;4.05;;
7295;SDS011;40758;54.038;11.684;2024-03-23T04:34:13;13.13;;;4.35;;
7295;SDS011;40758;54.038;11.684;2024-03-23T04:36:38;16.30;;;3.45;;
7295;SDS011;40758;54.038;11.684;2024-03-23T04:39:05;18.02;;;4.70;;
7295;SDS011;40758;54.038;11.684;2024-03-23T04:41:34;6.72;;;2.40;;
7295;SDS011;40758;54.038;11.684;2024-03-23T04:44:01;15.10;;;4.50;;
7295;SDS011;40758;54.038;11.684;2024-03-23T04:46:27;10.73;;;3.42;;
7295;SDS011;40758;54.038;11.684;2024-03-23T04:48:53;10.60;;;4.15;;
7295;SDS011;40758;54.038;11.684;2024-03-23T04:51:25;11.82;;;4.20;;
7295;SDS011;40758;54.038;11.684;2024-03-23T04:53:51;11.38;;;3.42;;
7295;SDS011;40758;54.038;11.684;2024-03-23T04:56:17;14.23;;;4.22;;
7295;SDS011;40758;54.038;11.684;2024-03-23T04:58:44;11.80;;;4.13;;
7295;SDS011;40758;54.038;11.684;2024-03-23T05:01:10;12.68;;;3.50;;
7295;SDS011;40758;54.038;11.684;2024-03-23T05:03:36;16.70;;;4.13;;
7295;SDS011;40758;54.038;11.684;2024-03-23T05:06:02;9.32;;;4.10;;
7295;SDS011;40758;54.038;11.684;2024-03-23T05:08:28;12.25;;;3.78;;
7295;SDS011;40758;54.038;11.684;2024-03-23T05:10:54;12.65;;;3.00;;
7295;SDS011;40758;54.038;11.684;2024-03-23T05:13:19;10.18;;;5.72;;
7295;SDS011;40758;54.038;11.684;2024-03-23T05:15:50;11.45;;;2.10;;
7295;SDS011;40758;54.038;11.684;2024-03-23T05:18:17;16.25;;;5.60;;
7295;SDS011;40758;54.038;11.684;2024-03-23T05:20:43;11.48;;;4.03;;
7295;SDS011;40758;54.038;11.684;2024-03-23T05:23:09;18.90;;;5.32;;
7295;SDS011;40758;54.038;11.684;2024-03-23T05:25:35;14.75;;;4.18;;
7295;SDS011;40758;54.038;11.684;2024-03-23T05:28:01;11.23;;;4.03;;
7295;SDS011;40758;54.038;11.684;2024-03-23T05:30:27;12.00;;;4.22;;
7295;SDS011;40758;54.038;11.684;2024-03-23T05:32:54;14.45;;;4.72;;
7295;SDS011;40758;54.038;11.684;2024-03-23T05:35:19;15.55;;;4.00;;
7295;SDS011;40758;54.038;11.684;2024-03-23T05:37:45;12.10;;;6.18;;
7295;SDS011;40758;54.038;11.684;2024-03-23T05:40:11;10.98;;;4.82;;
7295;SDS011;40758;54.038;11.684;2024-03-23T05:42:38;11.50;;;4.18;;
7295;SDS011;40758;54.038;11.684;2024-03-23T05:45:04;12.05;;;5.38;;
7295;SDS011;40758;54.038;11.684;2024-03-23T05:47:31;12.48;;;4.32;;
7295;SDS011;40758;54.038;11.684;2024-03-23T05:49:57;18.98;;;6.05;;
7295;SDS011;40758;54.038;11.684;2024-03-23T05:52:23;14.82;;;5.25;;
7295;SDS011;40758;54.038;11.684;2024-03-23T05:54:51;19.65;;;4.55;;
7295;SDS011;40758;54.038;11.684;2024-03-23T05:57:17;16.13;;;4.32;;
7295;SDS011;40758;54.038;11.684;2024-03-23T05:59:44;12.98;;;6.00;;
7295;SDS011;40758;54.038;11.684;2024-03-23T06:02:10;15.38;;;6.45;;
7295;SDS011;40758;54.038;11.684;2024-03-23T06:04:36;16.00;;;6.45;;
7295;SDS011;40758;54.038;11.684;2024-03-23T06:07:02;10.90;;;4.30;;
7295;SDS011;40758;54.038;11.684;2024-03-23T06:09:32;9.68;;;3.85;;
7295;SDS011;40758;54.038;11.684;2024-03-23T06:11:57;18.48;;;6.13;;
7295;SDS011;40758;54.038;11.684;2024-03-23T06:14:23;14.20;;;4.35;;
7295;SDS011;40758;54.038;11.684;2024-03-23T06:16:49;12.82;;;4.20;;
7295;SDS011;40758;54.038;11.684;2024-03-23T06:19:14;15.85;;;5.28;;
7295;SDS011;40758;54.038;11.684;2024-03-23T06:21:44;15.90;;;5.28;;
7295;SDS011;40758;54.038;11.684;2024-03-23T06:24:11;13.70;;;5.57;;
7295;SDS011;40758;54.038;11.684;2024-03-23T06:26:37;16.85;;;7.57;;
7295;SDS011;40758;54.038;11.684;2024-03-23T06:29:03;10.05;;;4.40;;
7295;SDS011;40758;54.038;11.684;2024-03-23T06:31:31;16.80;;;5.32;;
7295;SDS011;40758;54.038;11.684;2024-03-23T06:33:57;11.18;;;4.88;;
7295;SDS011;40758;54.038;11.684;2024-03-23T06:36:23;13.07;;;6.25;;
7295;SDS011;40758;54.038;11.684;2024-03-23T06:38:50;8.20;;;4.07;;
7295;SDS011;40758;54.038;11.684;2024-03-23T06:41:16;15.48;;;6.22;;
7295;SDS011;40758;54.038;11.684;2024-03-23T06:43:43;20.95;;;5.88;;
7295;SDS011;40758;54.038;11.684;2024-03-23T06:46:08;14.48;;;6.50;;
7295;SDS011;40758;54.038;11.684;2024-03-23T06:48:34;17.73;;;6.00;;
7295;SDS011;40758;54.038;11.684;2024-03-23T06:51:00;12.00;;;5.85;;
7295;SDS011;40758;54.038;11.684;2024-03-23T06:53:25;13.13;;;5.65;;
7295;SDS011;40758;54.038;11.684;2024-03-23T06:55:51;15.00;;;2.20;;
7295;SDS011;40758;54.038;11.684;2024-03-23T06:58:21;11.98;;;6.00;;
7295;SDS011;40758;54.038;11.684;2024-03-23T07:00:49;14.07;;;7.03;;
7295;SDS011;40758;54.038;11.684;2024-03-23T07:03:18;22.17;;;6.45;;
7295;SDS011;40758;54.038;11.684;2024-03-23T07:05:45;13.75;;;2.75;;
7295;SDS011;40758;54.038;11.684;2024-03-23T07:08:11;15.25;;;5.60;;
7295;SDS011;40758;54.038;11.684;2024-03-23T07:10:40;16.00;;;5.40;;
7295;SDS011;40758;54.038;11.684;2024-03-23T07:13:06;14.07;;;5.85;;
7295;SDS011;40758;54.038;11.684;2024-03-23T07:15:32;11.60;;;4.97;;
7295;SDS011;40758;54.038;11.684;2024-03-23T07:17:59;15.68;;;4.53;;
7295;SDS011;40758;54.038;11.684;2024-03-23T07:20:24;16.77;;;5.68;;
7295;SDS011;40758;54.038;11.684;2024-03-23T07:22:50;12.25;;;4.53;;
7295;SDS011;40758;54.038;11.684;2024-03-23T07:25:16;13.35;;;5.30;;
7295;SDS011;40758;54.038;11.684;2024-03-23T07:27:42;10.25;;;5.60;;
7295;SDS011;40758;54.038;11.684;2024-03-23T07:30:08;15.38;;;5.82;;
7295;SDS011;40758;54.038;11.684;2024-03-23T07:32:34;6.13;;;4.88;;
7295;SDS011;40758;54.038;11.684;2024-03-23T07:35:01;6.22;;;3.67;;
7295;SDS011;40758;54.038;11.684;2024-03-23T07:37:28;10.77;;;4.75;;
7295;SDS011;40758;54.038;11.684;2024-03-23T07:39:54;7.47;;;4.60;;
7295;SDS011;40758;54.038;11.684;2024-03-23T07:42:20;8.68;;;5.40;;
7295;SDS011;40758;54.038;11.684;2024-03-23T07:44:45;10.68;;;4.70;;
7295;SDS011;40758;54.038;11.684;2024-03-23T07:47:12;12.57;;;5.20;;
7295;SDS011;40758;54.038;11.684;2024-03-23T07:49:37;9.93;;;4.72;;
7295;SDS011;40758;54.038;11.684;2024-03-23T07:52:05;12.60;;;5.35;;
7295;SDS011;40758;54.038;11.684;2024-03-23T07:54:31;10.18;;;7.35;;
7295;SDS011;40758;54.038;11.684;2024-03-23T07:56:57;17.33;;;5.47;;
7295;SDS011;40758;54.038;11.684;2024-03-23T07:59:23;13.70;;;5.10;;
7295;SDS011;40758;54.038;11.684;2024-03-23T08:01:48;14.63;;;5.07;;
7295;SDS011;40758;54.038;11.684;2024-03-23T08:04:14;10.38;;;4.85;;
7295;SDS011;40758;54.038;11.684;2024-03-23T08:06:40;11.38;;;6.65;;
7295;SDS011;40758;54.038;11.684;2024-03-23T08:09:06;13.80;;;6.18;;
7295;SDS011;40758;54.038;11.684;2024-03-23T08:11:32;7.63;;;4.13;;
7295;SDS011;40758;54.038;11.684;2024-03-23T08:13:59;10.90;;;4.85;;
7295;SDS011;40758;54.038;11.684;2024-03-23T08:16:26;10.38;;;4.15;;
7295;SDS011;40758;54.038;11.684;2024-03-23T08:18:53;13.02;;;3.58;;
7295;SDS011;40758;54.038;11.684;2024-03-23T08:21:20;9.77;;;5.30;;
7295;SDS011;40758;54.038;11.684;2024-03-23T08:23:46;12.32;;;5.35;;
7295;SDS011;40758;54.038;11.684;2024-03-23T08:26:13;7.53;;;5.28;;
7295;SDS011;40758;54.038;11.684;2024-03-23T08:28:40;7.32;;;1.67;;
7295;SDS011;40758;54.038;11.684;2024-03-23T08:31:12;11.43;;;5.30;;
7295;SDS011;40758;54.038;11.684;2024-03-23T08:33:39;12.70;;;4.65;;
7295;SDS011;40758;54.038;11.684;2024-03-23T08:36:08;6.70;;;4.15;;
7295;SDS011;40758;54.038;11.684;2024-03-23T08:38:37;13.13;;;5.13;;
7295;SDS011;40758;54.038;11.684;2024-03-23T08:41:10;8.20;;;4.70;;
7295;SDS011;40758;54.038;11.684;2024-03-23T08:43:37;14.07;;;5.97;;
7295;SDS011;40758;54.038;11.684;2024-03-23T08:48:41;8.15;;;3.65;;
7295;SDS011;40758;54.038;11.684;2024-03-23T08:51:09;12.77;;;3.95;;
7295;SDS011;40758;54.038;11.684;2024-03-23T08:53:36;7.93;;;5.10;;
7295;SDS011;40758;54.038;11.684;2024-03-23T08:56:03;12.02;;;5.80;;
7295;SDS011;40758;54.038;11.684;2024-03-23T08:58:30;12.00;;;5.72;;
7295;SDS011;40758;54.038;11.684;2024-03-23T09:00:57;10.40;;;5.05;;
7295;SDS011;40758;54.038;11.684;2024-03-23T09:03:28;8.80;;;4.53;;
7295;SDS011;40758;54.038;11.684;2024-03-23T09:05:54;13.15;;;7.20;;
7295;SDS011;40758;54.038;11.684;2024-03-23T09:08:21;10.27;;;5.43;;
7295;SDS011;40758;54.038;11.684;2024-03-23T09:10:47;12.55;;;6.25;;
7295;SDS011;40758;54.038;11.684;2024-03-23T09:13:13;10.73;;;5.10;;
7295;SDS011;40758;54.038;11.684;2024-03-23T09:15:46;11.48;;;5.57;;
7295;SDS011;40758;54.038;11.684;2024-03-23T09:18:13;15.45;;;6.40;;
7295;SDS011;40758;54.038;11.684;2024-03-23T09:20:39;10.95;;;4.68;;
7295;SDS011;40758;54.038;11.684;2024-03-23T09:23:05;8.32;;;4.93;;
7295;SDS011;40758;54.038;11.684;2024-03-23T09:25:31;9.40;;;5.07;;
7295;SDS011;40758;54.038;11.684;2024-03-23T09:27:58;8.38;;;6.40;;
7295;SDS011;40758;54.038;11.684;2024-03-23T09:30:23;9.68;;;5.45;;
7295;SDS011;40758;54.038;11.684;2024-03-23T09:32:49;9.52;;;4.18;;
7295;SDS011;40758;54.038;11.684;2024-03-23T09:35:15;8.65;;;4.63;;
7295;SDS011;40758;54.038;11.684;2024-03-23T09:37:40;9.80;;;5.50;;
7295;SDS011;40758;54.038;11.684;2024-03-23T09:40:10;8.48;;;4.75;;
7295;SDS011;40758;54.038;11.684;2024-03-23T09:42:37;7.85;;;6.57;;
7295;SDS011;40758;54.038;11.684;2024-03-23T09:45:06;8.52;;;5.72;;
7295;SDS011;40758;54.038;11.684;2024-03-23T09:47:40;11.18;;;4.82;;
7295;SDS011;40758;54.038;11.684;2024-03-23T09:50:06;10.15;;;5.82;;
7295;SDS011;40758;54.038;11.684;2024-03-23T09:52:33;6.13;;;5.32;;
7295;SDS011;40758;54.038;11.684;2024-03-23T09:54:58;9.88;;;4.63;;
7295;SDS011;40758;54.038;11.684;2024-03-23T09:57:24;7.18;;;5.47;;
7295;SDS011;40758;54.038;11.684;2024-03-23T09:59:50;8.27;;;6.93;;
7295;SDS011;40758;54.038;11.684;2024-03-23T10:02:18;9.15;;;5.70;;
7295;SDS011;40758;54.038;11.684;2024-03-23T10:04:45;6.35;;;4.53;;
7295;SDS011;40758;54.038;11.684;2024-03-23T10:07:21;13.38;;;5.43;;
7295;SDS011;40758;54.038;11.684;2024-03-23T10:09:50;8.30;;;5.20;;
7295;SDS011;40758;54.038;11.684;2024-03-23T10:12:19;5.55;;;4.30;;
7295;SDS011;40758;54.038;11.684;2024-03-23T10:14:45;7.63;;;3.85;;
7295;SDS011;40758;54.038;11.684;2024-03-23T10:19:47;11.75;;;6.22;;
7295;SDS011;40758;54.038;11.684;2024-03-23T10:22:17;6.50;;;4.25;;
7295;SDS011;40758;54.038;11.684;2024-03-23T10:24:46;6.13;;;4.55;;
7295;SDS011;40758;54.038;11.684;2024-03-23T10:27:19;9.95;;;6.93;;
7295;SDS011;40758;54.038;11.684;2024-03-23T10:29:48;9.40;;;6.00;;
7295;SDS011;40758;54.038;11.684;2024-03-23T10:32:15;9.48;;;6.72;;
7295;SDS011;40758;54.038;11.684;2024-03-23T10:34:42;6.82;;;2.88;;
7295;SDS011;40758;54.038;11.684;2024-03-23T10:37:08;8.65;;;5.55;;
7295;SDS011;40758;54.038;11.684;2024-03-23T10:39:36;5.38;;;1.90;;
7295;SDS011;40758;54.038;11.684;2024-03-23T10:42:04;7.40;;;5.05;;
7295;SDS011;40758;54.038;11.684;2024-03-23T10:44:31;5.78;;;4.25;;
7295;SDS011;40758;54.038;11.684;2024-03-23T10:46:58;6.50;;;4.30;;
7295;SDS011;40758;54.038;11.684;2024-03-23T10:49:30;9.52;;;5.43;;
7295;SDS011;40758;54.038;11.684;2024-03-23T10:52:02;7.68;;;4.55;;
7295;SDS011;40758;54.038;11.684;2024-03-23T10:54:29;11.13;;;6.18;;
7295;SDS011;40758;54.038;11.684;2024-03-23T10:57:01;8.48;;;6.13;;
7295;SDS011;40758;54.038;11.684;2024-03-23T10:59:31;14.27;;;10.95;;
7295;SDS011;40758;54.038;11.684;2024-03-23T11:01:58;13.15;;;7.15;;
7295;SDS011;40758;54.038;11.684;2024-03-23T11:04:34;9.32;;;6.35;;
7295;SDS011;40758;54.038;11.684;2024-03-23T11:07:03;12.82;;;9.30;;
7295;SDS011;40758;54.038;11.684;2024-03-23T11:09:49;8.75;;;6.88;;
7295;SDS011;40758;54.038;11.684;2024-03-23T11:14:52;7.25;;;4.15;;
7295;SDS011;40758;54.038;11.684;2024-03-23T11:17:21;12.30;;;6.95;;
7295;SDS011;40758;54.038;11.684;2024-03-23T11:20:00;4.65;;;4.03;;
7295;SDS011;40758;54.038;11.684;2024-03-23T11:22:46;7.10;;;4.47;;
7295;SDS011;40758;54.038;11.684;2024-03-23T11:27:49;3.75;;;3.45;;
7295;SDS011;40758;54.038;11.684;2024-03-23T11:30:26;3.25;;;1.85;;
7295;SDS011;40758;54.038;11.684;2024-03-23T11:32:54;4.28;;;2.58;;
7295;SDS011;40758;54.038;11.684;2024-03-23T11:35:34;4.88;;;3.50;;
7295;SDS011;40758;54.038;11.684;2024-03-23T11:38:11;5.25;;;3.65;;
7295;SDS011;40758;54.038;11.684;2024-03-23T11:40:41;3.78;;;2.17;;
7295;SDS011;40758;54.038;11.684;2024-03-23T11:43:09;3.85;;;3.47;;
7295;SDS011;40758;54.038;11.684;2024-03-23T11:45:42;5.78;;;3.20;;
7295;SDS011;40758;54.038;11.684;2024-03-23T11:48:15;4.75;;;4.30;;
7295;SDS011;40758;54.038;11.684;2024-03-23T11:50:45;5.28;;;4.88;;
7295;SDS011;40758;54.038;11.684;2024-03-23T11:53:13;5.10;;;4.63;;
7295;SDS011;40758;54.038;11.684;2024-03-23T11:58:16;5.53;;;4.75;;
7295;SDS011;40758;54.038;11.684;2024-03-23T12:00:54;5.30;;;4.78;;
7295;SDS011;40758;54.038;11.684;2024-03-23T12:03:20;5.72;;;5.28;;
7295;SDS011;40758;54.038;11.684;2024-03-23T12:05:48;5.50;;;3.85;;
7295;SDS011;40758;54.038;11.684;2024-03-23T12:08:16;4.40;;;2.70;;
7295;SDS011;40758;54.038;11.684;2024-03-23T12:10:49;4.75;;;3.17;;
7295;SDS011;40758;54.038;11.684;2024-03-23T12:13:17;5.82;;;3.08;;
7295;SDS011;40758;54.038;11.684;2024-03-23T12:15:44;3.83;;;3.25;;
7295;SDS011;40758;54.038;11.684;2024-03-23T12:18:11;4.72;;;3.20;;
7295;SDS011;40758;54.038;11.684;2024-03-23T12:20:37;3.45;;;2.13;;
7295;SDS011;40758;54.038;11.684;2024-03-23T12:23:07;4.30;;;3.65;;
7295;SDS011;40758;54.038;11.684;2024-03-23T12:25:35;4.68;;;4.38;;
7295;SDS011;40758;54.038;11.684;2024-03-23T12:28:01;4.88;;;4.35;;
7295;SDS011;40758;54.038;11.684;2024-03-23T12:30:28;3.58;;;3.28;;
7295;SDS011;40758;54.038;11.684;2024-03-23T12:32:54;2.28;;;1.23;;
7295;SDS011;40758;54.038;11.684;2024-03-23T12:35:20;3.97;;;3.60;;
7295;SDS011;40758;54.038;11.684;2024-03-23T12:37:45;5.95;;;5.43;;
7295;SDS011;40758;54.038;11.684;2024-03-23T12:40:11;4.35;;;2.63;;
7295;SDS011;40758;54.038;11.684;2024-03-23T12:42:37;4.78;;;4.32;;
7295;SDS011;40758;54.038;11.684;2024-03-23T12:45:06;5.55;;;4.30;;
7295;SDS011;40758;54.038;11.684;2024-03-23T12:47:32;5.97;;;5.38;;
7295;SDS011;40758;54.038;11.684;2024-03-23T12:49:58;6.78;;;4.55;;
7295;SDS011;40758;54.038;11.684;2024-03-23T12:52:24;3.75;;;1.08;;
7295;SDS011;40758;54.038;11.684;2024-03-23T12:54:54;5.72;;;5.22;;
7295;SDS011;40758;54.038;11.684;2024-03-23T12:57:23;5.03;;;4.25;;
7295;SDS011;40758;54.038;11.684;2024-03-23T12:59:50;4.38;;;3.13;;
7295;SDS011;40758;54.038;11.684;2024-03-23T13:02:22;4.00;;;3.58;;
7295;SDS011;40758;54.038;11.684;2024-03-23T13:04:51;5.10;;;4.28;;
7295;SDS011;40758;54.038;11.684;2024-03-23T13:07:18;2.47;;;2.28;;
7295;SDS011;40758;54.038;11.684;2024-03-23T13:09:45;3.25;;;2.95;;
7295;SDS011;40758;54.038;11.684;2024-03-23T13:12:11;3.72;;;3.38;;
7295;SDS011;40758;54.038;11.684;2024-03-23T13:14:38;4.70;;;4.10;;
7295;SDS011;40758;54.038;11.684;2024-03-23T13:17:04;3.25;;;2.70;;
7295;SDS011;40758;54.038;11.684;2024-03-23T13:19:30;2.92;;;2.72;;
7295;SDS011;40758;54.038;11.684;2024-03-23T13:21:57;4.32;;;4.03;;
7295;SDS011;40758;54.038;11.684;2024-03-23T13:24:24;4.78;;;4.47;;
7295;SDS011;40758;54.038;11.684;2024-03-23T13:26:51;3.40;;;2.90;;
7295;SDS011;40758;54.038;11.684;2024-03-23T13:29:18;4.10;;;3.00;;
7295;SDS011;40758;54.038;11.684;2024-03-23T13:31:45;3.45;;;1.65;;
7295;SDS011;40758;54.038;11.684;2024-03-23T13:34:14;7.00;;;6.55;;
7295;SDS011;40758;54.038;11.684;2024-03-23T13:36:49;4.00;;;3.70;;
7295;SDS011;40758;54.038;11.684;2024-03-23T13:39:15;5.00;;;4.65;;
7295;SDS011;40758;54.038;11.684;2024-03-23T13:41:42;3.50;;;3.20;;
7295;SDS011;40758;54.038;11.684;2024-03-23T13:46:39;5.78;;;3.28;;
7295;SDS011;40758;54.038;11.684;2024-03-23T13:49:06;4.25;;;3.95;;
7295;SDS011;40758;54.038;11.684;2024-03-23T13:51:32;4.07;;;3.72;;
7295;SDS011;40758;54.038;11.684;2024-03-23T13:53:58;4.70;;;4.40;;
7295;SDS011;40758;54.038;11.684;2024-03-23T13:56:27;3.97;;;3.67;;
7295;SDS011;40758;54.038;11.684;2024-03-23T13:58:58;4.88;;;4.43;;
7295;SDS011;40758;54.038;11.684;2024-03-23T14:01:24;2.08;;;1.88;;
7295;SDS011;40758;54.038;11.684;2024-03-23T14:03:50;3.03;;;2.83;;
7295;SDS011;40758;54.038;11.684;2024-03-23T14:06:16;2.33;;;1.88;;
7295;SDS011;40758;54.038;11.684;2024-03-23T14:08:41;3.45;;;3.20;;
7295;SDS011;40758;54.038;11.684;2024-03-23T14:11:08;3.30;;;2.85;;
7295;SDS011;40758;54.038;11.684;2024-03-23T14:13:34;3.08;;;2.78;;
7295;SDS011;40758;54.038;11.684;2024-03-23T14:16:00;2.88;;;2.00;;
7295;SDS011;40758;54.038;11.684;2024-03-23T14:18:27;4.30;;;2.60;;
7295;SDS011;40758;54.038;11.684;2024-03-23T14:20:58;4.65;;;2.47;;
7295;SDS011;40758;54.038;11.684;2024-03-23T14:23:26;5.93;;;2.53;;
7295;SDS011;40758;54.038;11.684;2024-03-23T14:25:53;5.85;;;2.72;;
7295;SDS011;40758;54.038;11.684;2024-03-23T14:28:19;4.57;;;3.33;;
7295;SDS011;40758;54.038;11.684;2024-03-23T14:30:46;3.35;;;3.15;;
7295;SDS011;40758;54.038;11.684;2024-03-23T14:33:11;4.15;;;3.50;;
7295;SDS011;40758;54.038;11.684;2024-03-23T14:35:38;3.63;;;3.25;;
7295;SDS011;40758;54.038;11.684;2024-03-23T14:38:05;3.60;;;3.30;;
7295;SDS011;40758;54.038;11.684;2024-03-23T14:40:31;3.38;;;3.08;;
7295;SDS011;40758;54.038;11.684;2024-03-23T14:42:57;4.20;;;3.90;;
7295;SDS011;40758;54.038;11.684;2024-03-23T14:45:22;5.57;;;5.07;;
7295;SDS011;40758;54.038;11.684;2024-03-23T14:47:50;3.50;;;3.20;;
7295;SDS011;40758;54.038;11.684;2024-03-23T14:50:16;3.58;;;3.28;;
7295;SDS011;40758;54.038;11.684;2024-03-23T14:52:43;3.63;;;3.42;;
7295;SDS011;40758;54.038;11.684;2024-03-23T14:55:11;6.68;;;6.38;;
7295;SDS011;40758;54.038;11.684;2024-03-23T14:57:37;5.03;;;4.63;;
7295;SDS011;40758;54.038;11.684;2024-03-23T15:00:07;4.20;;;3.90;;
7295;SDS011;40758;54.038;11.684;2024-03-23T15:02:33;4.40;;;4.05;;
7295;SDS011;40758;54.038;11.684;2024-03-23T15:05:00;6.43;;;6.05;;
7295;SDS011;40758;54.038;11.684;2024-03-23T15:07:26;4.22;;;3.92;;
7295;SDS011;40758;54.038;11.684;2024-03-23T15:09:53;2.78;;;0.70;;
7295;SDS011;40758;54.038;11.684;2024-03-23T15:12:19;4.40;;;2.45;;
7295;SDS011;40758;54.038;11.684;2024-03-23T15:14:45;4.93;;;4.53;;
7295;SDS011;40758;54.038;11.684;2024-03-23T15:17:11;5.18;;;4.80;;
7295;SDS011;40758;54.038;11.684;2024-03-23T15:19:37;3.00;;;2.55;;
7295;SDS011;40758;54.038;11.684;2024-03-23T15:22:03;4.00;;;3.70;;
7295;SDS011;40758;54.038;11.684;2024-03-23T15:24:29;5.93;;;5.25;;
7295;SDS011;40758;54.038;11.684;2024-03-23T15:26:54;6.07;;;4.38;;
7295;SDS011;40758;54.038;11.684;2024-03-23T15:29:20;4.25;;;3.85;;
7295;SDS011;40758;54.038;11.684;2024-03-23T15:31:48;4.95;;;1.10;;
7295;SDS011;40758;54.038;11.684;2024-03-23T15:34:18;4.65;;;4.35;;
7295;SDS011;40758;54.038;11.684;2024-03-23T15:36:47;4.47;;;4.07;;
7295;SDS011;40758;54.038;11.684;2024-03-23T15:39:14;4.80;;;4.40;;
7295;SDS011;40758;54.038;11.684;2024-03-23T15:41:40;4.85;;;4.43;;
7295;SDS011;40758;54.038;11.684;2024-03-23T15:44:06;4.85;;;4.55;;
7295;SDS011;40758;54.038;11.684;2024-03-23T15:46:32;4.75;;;4.43;;
7295;SDS011;40758;54.038;11.684;2024-03-23T15:48:57;3.95;;;3.65;;
7295;SDS011;40758;54.038;11.684;2024-03-23T15:51:23;3.13;;;2.83;;